Time;durP1;ratioP1;P1;durP2;ratioP2;P2;SDS_P1;SDS_P2;PMS_P1;PMS_P2;Temp;Humidity;BMP_temperature;BMP_pressure;BME280_temperature;BME280_humidity;BME280_pressure;Samples;Min_cycle;Max_cycle;Signal;HPM_P1;HPM_P2
2021/03/09 00:02:02;;;;;;;61.97;27.50;;;;;;;3.21;100.00;101852.38;5097877;28;20078;-60
2021/03/09 00:04:28;;;;;;;54.50;24.05;;;;;;;3.22;100.00;101851.47;5094328;28;20052;-61
2021/03/09 00:06:54;;;;;;;53.70;24.00;;;;;;;3.20;100.00;101848.00;5098514;28;20048;-60
2021/03/09 00:09:20;;;;;;;49.92;22.17;;;;;;;3.22;100.00;101848.81;5098309;28;20077;-63
2021/03/09 00:11:47;;;;;;;53.03;23.50;;;;;;;3.14;100.00;101849.13;5097679;28;20044;-61
2021/03/09 00:14:13;;;;;;;50.40;23.40;;;;;;;3.17;100.00;101845.47;5094485;28;20052;-61
2021/03/09 00:16:39;;;;;;;46.58;20.88;;;;;;;3.17;100.00;101842.81;5090675;28;20050;-62
2021/03/09 00:19:05;;;;;;;47.15;20.85;;;;;;;3.12;100.00;101838.56;5092261;28;20044;-61
2021/03/09 00:21:31;;;;;;;49.25;21.15;;;;;;;3.10;100.00;101840.38;5082517;28;20455;-63
2021/03/09 00:23:56;;;;;;;44.28;20.20;;;;;;;3.12;100.00;101837.66;5085520;28;20070;-61
2021/03/09 00:26:22;;;;;;;47.00;21.70;;;;;;;3.09;100.00;101825.38;5075497;28;20499;-60
2021/03/09 00:28:49;;;;;;;52.97;23.13;;;;;;;3.11;100.00;101828.84;5081771;28;20059;-63
2021/03/09 00:31:15;;;;;;;57.00;24.65;;;;;;;3.12;100.00;101825.25;5094306;28;20089;-62
2021/03/09 00:33:41;;;;;;;53.85;22.42;;;;;;;3.09;100.00;101817.41;5093775;28;20051;-61
2021/03/09 00:36:07;;;;;;;48.33;21.63;;;;;;;3.10;100.00;101821.78;5094276;28;20036;-61
2021/03/09 00:38:33;;;;;;;50.78;22.88;;;;;;;3.11;100.00;101818.19;5093980;28;20052;-60
2021/03/09 00:40:59;;;;;;;46.45;21.55;;;;;;;3.13;100.00;101821.63;5097983;28;20172;-61
2021/03/09 00:43:25;;;;;;;54.38;23.23;;;;;;;3.09;100.00;101809.44;5099366;28;20105;-61
2021/03/09 00:45:52;;;;;;;49.38;21.17;;;;;;;3.12;100.00;101803.97;5099051;28;20326;-61
2021/03/09 00:48:17;;;;;;;58.25;23.13;;;;;;;3.17;100.00;101805.56;5099587;28;20113;-63
2021/03/09 00:50:43;;;;;;;55.03;26.15;;;;;;;3.08;100.00;101797.03;5099366;28;20056;-61
2021/03/09 00:53:09;;;;;;;55.00;23.25;;;;;;;3.14;100.00;101799.44;5096525;28;20062;-62
2021/03/09 00:55:35;;;;;;;54.28;23.00;;;;;;;3.14;100.00;101796.78;5099967;28;20058;-63
2021/03/09 00:58:01;;;;;;;59.70;24.67;;;;;;;3.13;100.00;101795.03;5097920;28;20059;-61
2021/03/09 01:00:30;;;;;;;50.67;22.35;;;;;;;3.17;100.00;101794.94;5096939;28;21810;-62
2021/03/09 01:02:57;;;;;;;54.87;25.13;;;;;;;3.16;100.00;101799.38;5094051;28;20059;-63
2021/03/09 01:05:24;;;;;;;53.17;22.48;;;;;;;3.23;100.00;101794.66;5095018;28;20066;-61
2021/03/09 01:07:50;;;;;;;53.30;22.95;;;;;;;3.20;100.00;101790.34;5098748;28;20064;-61
2021/03/09 01:10:17;;;;;;;56.28;25.15;;;;;;;3.18;100.00;101791.31;5097555;28;20093;-61
2021/03/09 01:12:43;;;;;;;56.72;24.27;;;;;;;3.23;100.00;101778.72;5098436;28;20051;-63
2021/03/09 01:15:10;;;;;;;52.67;22.88;;;;;;;3.24;100.00;101783.06;5098635;28;20075;-61
2021/03/09 01:17:37;;;;;;;57.65;22.92;;;;;;;3.30;100.00;101777.50;5096712;28;20105;-62
2021/03/09 01:20:06;;;;;;;49.45;22.77;;;;;;;3.29;100.00;101783.75;5094577;28;20439;-62
2021/03/09 01:22:32;;;;;;;58.30;24.50;;;;;;;3.23;100.00;101773.38;5096287;28;20058;-61
2021/03/09 01:24:58;;;;;;;54.72;24.10;;;;;;;3.23;100.00;101768.06;5097773;28;20050;-62
2021/03/09 01:27:24;;;;;;;52.13;23.70;;;;;;;3.23;100.00;101765.41;5097546;28;20048;-64
2021/03/09 01:29:50;;;;;;;58.15;23.10;;;;;;;3.26;100.00;101762.59;5095197;28;20120;-62
2021/03/09 01:32:16;;;;;;;54.17;24.27;;;;;;;3.24;100.00;101759.13;5097470;28;20051;-62
2021/03/09 01:34:42;;;;;;;53.35;23.55;;;;;;;3.22;100.00;101753.88;5098844;28;20047;-62
2021/03/09 01:37:08;;;;;;;53.30;23.40;;;;;;;3.24;100.00;101748.50;5097694;28;21029;-62
2021/03/09 01:39:34;;;;;;;50.75;23.13;;;;;;;3.27;100.00;101753.69;5096805;28;20048;-62
2021/03/09 01:42:01;;;;;;;60.38;23.38;;;;;;;3.26;100.00;101750.16;5098584;28;20063;-62
2021/03/09 01:44:27;;;;;;;57.83;24.75;;;;;;;3.24;100.00;101748.50;5097893;28;20439;-65
2021/03/09 01:46:55;;;;;;;53.55;23.52;;;;;;;3.27;100.00;101741.25;5096675;28;20051;-62
2021/03/09 01:49:21;;;;;;;52.28;23.17;;;;;;;3.28;100.00;101739.44;5094692;28;20130;-62
2021/03/09 01:51:48;;;;;;;56.33;24.48;;;;;;;3.32;100.00;101741.03;5097099;28;20123;-62
2021/03/09 01:54:15;;;;;;;59.70;25.23;;;;;;;3.29;100.00;101733.19;5096077;28;20423;-62
2021/03/09 01:56:42;;;;;;;57.85;26.05;;;;;;;3.28;100.00;101729.69;5096181;28;20374;-64
2021/03/09 01:59:09;;;;;;;59.95;25.80;;;;;;;3.31;100.00;101721.56;5096406;28;20503;-62
2021/03/09 02:01:35;;;;;;;67.22;29.75;;;;;;;3.29;100.00;101722.56;5097290;28;20047;-62
2021/03/09 02:04:01;;;;;;;60.80;26.27;;;;;;;3.32;100.00;101725.09;5089750;28;20047;-63
2021/03/09 02:06:27;;;;;;;60.88;24.83;;;;;;;3.38;100.00;101723.94;5098050;28;20044;-64
2021/03/09 02:08:54;;;;;;;64.28;26.85;;;;;;;3.39;100.00;101715.91;5095174;28;20151;-62
2021/03/09 02:11:33;;;;;;;66.40;27.75;;;;;;;3.37;100.00;101722.22;5097043;27;20047;-62
2021/03/09 02:14:06;;;;;;;61.35;27.05;;;;;;;3.37;100.00;101712.41;5095851;28;20051;-63
2021/03/09 02:16:39;;;;;;;67.50;28.25;;;;;;;3.38;100.00;101706.19;5098762;27;20044;-64
2021/03/09 02:19:31;;;;;;;70.40;28.13;;;;;;;3.36;100.00;101704.50;5096178;28;20055;-62
2021/03/09 02:22:14;;;;;;;65.65;25.52;;;;;;;3.47;100.00;101697.78;5094810;28;20066;-62
2021/03/09 02:25:06;;;;;;;57.60;26.52;;;;;;;3.39;100.00;101699.94;5096065;28;20047;-64
2021/03/09 02:27:48;;;;;;;61.63;26.80;;;;;;;3.39;100.00;101699.06;5095644;28;20054;-65
2021/03/09 02:30:24;;;;;;;68.82;30.58;;;;;;;3.41;100.00;101686.56;5096794;28;20046;-61
2021/03/09 02:32:58;;;;;;;75.38;33.75;;;;;;;3.41;100.00;101687.41;5095216;28;20425;-64
2021/03/09 02:35:28;;;;;;;72.80;29.60;;;;;;;3.44;100.00;101687.25;5095021;28;20089;-62
2021/03/09 02:37:57;;;;;;;63.95;29.05;;;;;;;3.50;100.00;101687.00;5096755;28;20051;-64
2021/03/09 02:40:26;;;;;;;72.45;30.30;;;;;;;3.51;100.00;101680.72;5097211;28;20051;-62
2021/03/09 02:42:58;;;;;;;71.93;30.97;;;;;;;3.50;100.00;101687.00;5097185;28;20057;-63
2021/03/09 02:45:26;;;;;;;74.57;30.35;;;;;;;3.48;100.00;101683.53;5096453;28;20308;-63
2021/03/09 02:47:54;;;;;;;85.55;34.30;;;;;;;3.47;100.00;101681.81;5094796;28;20802;-62
2021/03/09 02:50:23;;;;;;;71.13;30.13;;;;;;;3.52;100.00;101673.63;5094833;28;20097;-62
2021/03/09 02:52:55;;;;;;;76.88;32.85;;;;;;;3.56;100.00;101663.69;5095488;28;20408;-62
2021/03/09 02:55:22;;;;;;;91.55;35.35;;;;;;;3.51;100.00;101658.59;5096550;28;20041;-62
2021/03/09 02:57:50;;;;;;;87.55;33.08;;;;;;;3.57;100.00;101658.28;5095346;28;20489;-62
2021/03/09 03:02:45;;;;;;;80.40;32.10;;;;;;;3.60;100.00;101647.50;5039449;22;20061;-63
2021/03/09 03:05:13;;;;;;;92.88;37.22;;;;;;;3.62;100.00;101642.09;5018280;28;20513;-63
2021/03/09 03:07:40;;;;;;;94.25;37.75;;;;;;;3.62;100.00;101647.44;5019737;28;20072;-62
2021/03/09 03:10:11;;;;;;;83.55;34.90;;;;;;;3.65;100.00;101642.84;5018397;28;20057;-62
2021/03/09 03:12:37;;;;;;;95.13;43.35;;;;;;;3.62;100.00;101636.78;5024043;28;20124;-62
2021/03/09 03:15:06;;;;;;;86.90;36.45;;;;;;;3.67;100.00;101634.78;5038369;28;20041;-63
2021/03/09 03:17:35;;;;;;;88.55;36.40;;;;;;;3.70;100.00;101623.13;5038496;28;20068;-63
2021/03/09 03:20:03;;;;;;;92.40;37.65;;;;;;;3.63;100.00;101617.22;5039140;28;20061;-62
2021/03/09 03:22:31;;;;;;;86.53;35.17;;;;;;;3.67;100.00;101619.66;5018758;28;20049;-62
2021/03/09 03:24:57;;;;;;;96.32;38.95;;;;;;;3.67;100.00;101624.13;5019403;28;20293;-63
2021/03/09 03:27:24;;;;;;;99.78;37.45;;;;;;;3.71;100.00;101616.84;5018823;28;20050;-62
2021/03/09 03:29:50;;;;;;;99.75;37.45;;;;;;;3.70;100.00;101610.69;5018193;28;20053;-62
2021/03/09 03:32:17;;;;;;;87.05;35.85;;;;;;;3.72;100.00;101614.13;5018633;28;20046;-62
2021/03/09 03:34:44;;;;;;;94.13;39.00;;;;;;;3.71;100.00;101609.75;5019704;28;20054;-62
2021/03/09 03:37:11;;;;;;;107.20;40.63;;;;;;;3.71;100.00;101609.75;5019854;28;20046;-63
2021/03/09 03:39:37;;;;;;;99.43;37.05;;;;;;;3.75;100.00;101611.31;5018855;28;20050;-62
2021/03/09 03:42:04;;;;;;;101.95;39.80;;;;;;;3.73;100.00;101605.19;5018637;28;20053;-62
2021/03/09 03:44:29;;;;;;;100.22;37.92;;;;;;;3.74;100.00;101606.94;5019242;28;20509;-62
2021/03/09 03:46:56;;;;;;;100.50;37.10;;;;;;;3.79;100.00;101606.72;5017066;28;20057;-63
2021/03/09 03:49:22;;;;;;;93.30;36.13;;;;;;;3.79;100.00;101615.56;5018122;28;20419;-65
2021/03/09 03:51:52;;;;;;;105.40;43.25;;;;;;;3.80;100.00;101606.63;5018712;28;20069;-62
2021/03/09 03:54:30;;;;;;;103.43;38.33;;;;;;;3.80;100.00;101603.97;5018633;28;20057;-63
2021/03/09 03:57:01;;;;;;;106.18;42.58;;;;;;;3.86;100.00;101598.34;5015935;28;20529;-62
2021/03/09 03:59:38;;;;;;;98.90;39.45;;;;;;;3.83;100.00;101609.16;5028823;28;20048;-62
2021/03/09 04:02:07;;;;;;;104.03;39.63;;;;;;;3.85;100.00;101599.28;5037688;28;20118;-62
2021/03/09 04:04:36;;;;;;;104.72;39.63;;;;;;;3.83;100.00;101601.16;5031982;28;20208;-64
2021/03/09 04:07:05;;;;;;;97.75;37.67;;;;;;;3.89;100.00;101597.34;5038406;28;20057;-62
2021/03/09 04:09:33;;;;;;;102.80;38.50;;;;;;;3.92;100.00;101596.34;5038145;28;20057;-62
2021/03/09 04:12:01;;;;;;;93.07;37.28;;;;;;;3.94;100.00;101592.63;5038185;28;20941;-62
2021/03/09 04:16:57;;;;;;;92.75;35.78;;;;;;;3.98;100.00;101590.69;5070191;22;20049;-64
2021/03/09 04:19:24;;;;;;;93.35;38.03;;;;;;;3.92;100.00;101593.66;5060589;28;20060;-62
2021/03/09 04:21:51;;;;;;;107.10;39.75;;;;;;;3.94;100.00;101591.78;5060740;28;20060;-64
2021/03/09 04:24:17;;;;;;;100.43;39.97;;;;;;;3.95;100.00;101583.72;5060502;28;20056;-62
2021/03/09 04:26:46;;;;;;;102.05;38.70;;;;;;;3.94;100.00;101583.78;5060592;28;20106;-62
2021/03/09 04:29:14;;;;;;;101.47;40.47;;;;;;;3.93;100.00;101582.06;5059469;28;20053;-63
2021/03/09 04:31:41;;;;;;;100.15;39.30;;;;;;;3.95;100.00;101585.53;5059965;28;20063;-62
2021/03/09 04:34:08;;;;;;;98.20;37.13;;;;;;;4.00;100.00;101584.34;5060940;28;20064;-64
2021/03/09 04:36:35;;;;;;;98.63;37.92;;;;;;;4.04;100.00;101582.41;5060811;28;20040;-62
2021/03/09 04:39:03;;;;;;;100.88;38.92;;;;;;;4.01;100.00;101579.88;5059804;28;20060;-62
2021/03/09 04:41:29;;;;;;;104.15;40.30;;;;;;;4.00;100.00;101580.81;5060441;28;20067;-62
2021/03/09 04:43:56;;;;;;;109.15;42.38;;;;;;;3.98;100.00;101588.03;5060714;28;20131;-63
2021/03/09 04:46:23;;;;;;;97.68;39.38;;;;;;;4.02;100.00;101586.94;5060487;28;20056;-63
2021/03/09 04:48:49;;;;;;;94.22;36.35;;;;;;;4.05;100.00;101589.47;5060437;28;20489;-62
2021/03/09 04:51:17;;;;;;;102.20;39.88;;;;;;;4.02;100.00;101592.28;5060844;28;20090;-65
2021/03/09 04:53:44;;;;;;;100.38;39.28;;;;;;;4.03;100.00;101578.88;5059750;28;20048;-62
2021/03/09 04:56:10;;;;;;;91.55;36.22;;;;;;;4.05;100.00;101586.78;5059682;28;20114;-62
2021/03/09 04:58:36;;;;;;;99.15;38.92;;;;;;;4.04;100.00;101585.06;5060999;28;20581;-64
2021/03/09 05:01:04;;;;;;;93.63;38.25;;;;;;;4.09;100.00;101591.00;5059612;28;20048;-62
2021/03/09 05:03:31;;;;;;;101.85;37.50;;;;;;;4.04;100.00;101585.06;5061236;28;20048;-62
2021/03/09 05:05:57;;;;;;;101.22;40.33;;;;;;;4.06;100.00;101585.84;5060297;28;20098;-62
2021/03/09 05:08:23;;;;;;;94.40;36.95;;;;;;;4.12;100.00;101593.56;5060298;28;20061;-64
2021/03/09 05:10:49;;;;;;;105.38;41.40;;;;;;;4.05;100.00;101589.47;5060909;28;20057;-62
2021/03/09 05:15:46;;;;;;;107.07;39.95;;;;;;;4.10;100.00;101582.09;5068251;22;20095;-64
2021/03/09 05:18:13;;;;;;;97.35;38.03;;;;;;;4.12;100.00;101592.66;5060471;28;20525;-62
2021/03/09 05:20:39;;;;;;;100.82;39.65;;;;;;;4.13;100.00;101584.59;5060719;28;20057;-64
2021/03/09 05:23:05;;;;;;;114.13;43.40;;;;;;;4.09;100.00;101591.00;5059951;28;20048;-62
2021/03/09 05:25:32;;;;;;;108.82;41.25;;;;;;;4.12;100.00;101588.22;5059293;28;20045;-62
2021/03/09 05:27:58;;;;;;;107.18;39.90;;;;;;;4.09;100.00;101601.66;5060148;28;20431;-64
2021/03/09 05:30:25;;;;;;;116.72;42.78;;;;;;;4.10;100.00;101584.75;5059135;28;20054;-63
2021/03/09 05:32:51;;;;;;;115.68;41.35;;;;;;;4.15;100.00;101581.84;5059942;28;20409;-65
2021/03/09 05:35:18;;;;;;;113.93;41.80;;;;;;;4.11;100.00;101591.81;5058795;28;20044;-62
2021/03/09 05:37:45;;;;;;;134.10;48.05;;;;;;;4.09;100.00;101585.69;5060320;28;20094;-62
2021/03/09 05:40:12;;;;;;;119.65;41.55;;;;;;;4.09;100.00;101583.00;5059900;28;20044;-62
2021/03/09 05:42:38;;;;;;;126.40;45.10;;;;;;;4.07;100.00;101582.25;5060453;28;20041;-64
2021/03/09 05:45:06;;;;;;;109.50;42.58;;;;;;;4.10;100.00;101583.91;5059400;28;20065;-62
2021/03/09 05:47:32;;;;;;;110.43;42.30;;;;;;;4.11;100.00;101583.81;5059756;28;20102;-62
2021/03/09 05:49:58;;;;;;;111.03;43.40;;;;;;;4.12;100.00;101582.91;5060537;28;20052;-63
2021/03/09 05:52:25;;;;;;;109.05;39.80;;;;;;;4.10;100.00;101584.75;5059956;28;20068;-62
2021/03/09 05:54:51;;;;;;;113.32;42.30;;;;;;;4.14;100.00;101585.47;5060525;28;20182;-62
2021/03/09 05:57:17;;;;;;;126.18;44.92;;;;;;;4.11;100.00;101581.16;5059167;28;20383;-62
2021/03/09 05:59:44;;;;;;;111.07;42.38;;;;;;;4.19;100.00;101588.75;5060079;28;20669;-62
2021/03/09 06:02:10;;;;;;;114.00;43.13;;;;;;;4.11;100.00;101586.47;5056777;28;20068;-62
2021/03/09 06:04:37;;;;;;;112.38;43.13;;;;;;;4.13;100.00;101584.59;5054444;28;20051;-63
2021/03/09 06:07:04;;;;;;;130.55;46.00;;;;;;;4.14;100.00;101589.00;5060179;28;20057;-61
2021/03/09 06:09:41;;;;;;;125.25;45.30;;;;;;;4.13;100.00;101592.59;5057902;28;20072;-62
2021/03/09 06:12:16;;;;;;;124.88;44.65;;;;;;;4.16;100.00;101594.25;5058957;28;20048;-61
2021/03/09 06:14:44;;;;;;;123.75;44.60;;;;;;;4.16;100.00;101597.75;5058797;28;20068;-63
2021/03/09 06:17:12;;;;;;;113.67;43.67;;;;;;;4.16;100.00;101597.75;5058609;28;20086;-62
2021/03/09 06:19:45;;;;;;;106.97;40.45;;;;;;;4.23;100.00;101597.47;5056825;28;20099;-62
2021/03/09 06:22:12;;;;;;;114.30;41.03;;;;;;;4.21;100.00;101598.41;5057121;28;20048;-62
2021/03/09 06:24:38;;;;;;;109.10;41.92;;;;;;;4.23;100.00;101595.66;5058194;28;20390;-65
2021/03/09 06:27:22;;;;;;;107.68;42.60;;;;;;;4.26;100.00;101592.00;5044687;28;20064;-62
2021/03/09 06:29:48;;;;;;;107.60;41.15;;;;;;;4.26;100.00;101594.66;5043526;28;20485;-64
2021/03/09 06:32:14;;;;;;;92.78;40.05;;;;;;;4.31;100.00;101597.94;5046815;28;20139;-63
2021/03/09 06:34:40;;;;;;;112.13;41.53;;;;;;;4.31;100.00;101598.78;5058425;28;20056;-62
2021/03/09 06:37:09;;;;;;;97.63;39.75;;;;;;;4.33;100.00;101598.75;5057119;28;20045;-63
2021/03/09 06:39:44;;;;;;;101.30;38.67;;;;;;;4.35;100.00;101599.50;5058767;28;20053;-62
2021/03/09 06:42:12;;;;;;;86.38;34.15;;;;;;;4.42;100.00;101600.03;5056489;28;20489;-62
2021/03/09 06:44:39;;;;;;;75.45;30.92;;;;;;;4.44;100.00;101604.38;5056786;28;20048;-63
2021/03/09 06:47:05;;;;;;;77.60;31.40;;;;;;;4.51;100.00;101610.25;5055305;28;20417;-63
2021/03/09 06:49:31;;;;;;;78.95;31.15;;;;;;;4.55;100.00;101598.50;5043841;28;20138;-63
2021/03/09 06:52:12;;;;;;;71.80;29.45;;;;;;;4.53;100.00;101595.94;5052331;28;20053;-64
2021/03/09 06:54:43;;;;;;;61.78;25.27;;;;;;;4.59;100.00;101601.88;5055479;28;20124;-63
2021/03/09 06:57:10;;;;;;;54.65;24.73;;;;;;;4.66;100.00;101611.28;5057177;28;21557;-64
2021/03/09 06:59:37;;;;;;;52.28;23.38;;;;;;;4.71;100.00;101609.22;5058462;28;20052;-64
2021/03/09 07:02:06;;;;;;;42.75;19.95;;;;;;;4.81;100.00;101610.47;5058988;28;20048;-64
2021/03/09 07:04:32;;;;;;;41.65;18.73;;;;;;;4.78;100.00;101618.63;5058687;28;20143;-63
2021/03/09 07:06:58;;;;;;;37.65;17.92;;;;;;;4.79;100.00;101620.34;5057686;28;20044;-63
2021/03/09 07:09:24;;;;;;;32.75;15.88;;;;;;;4.79;100.00;101617.69;5058172;28;20056;-63
2021/03/09 07:11:51;;;;;;;37.22;15.82;;;;;;;4.81;100.00;101621.13;5000068;28;20130;-63
2021/03/09 07:14:19;;;;;;;28.83;13.13;;;;;;;4.83;100.00;101621.03;4974671;28;20129;-63
2021/03/09 07:16:48;;;;;;;24.77;9.57;;;;;;;4.86;100.00;101627.09;4978735;28;20053;-63
2021/03/09 07:19:16;;;;;;;;;;;;;;;4.91;100.00;101630.38;4976618;28;20135;-63
2021/03/09 07:21:43;;;;;;;18.80;7.22;;;;;;;4.88;100.00;101630.53;4962967;28;20059;-63
2021/03/09 07:24:11;;;;;;;13.70;6.95;;;;;;;4.96;100.00;101632.81;4965623;28;20186;-65
2021/03/09 07:26:40;;;;;;;16.15;6.80;;;;;;;5.04;100.00;101629.75;4980861;28;20163;-64
2021/03/09 07:29:11;;;;;;;;;;;;;;;5.03;100.00;101641.34;4980500;28;20084;-65
2021/03/09 07:31:41;;;;;;;12.82;5.95;;;;;;;5.05;100.00;101637.66;4980880;28;19935;-63
2021/03/09 07:34:09;;;;;;;11.07;5.90;;;;;;;5.06;100.00;101643.84;4979794;28;20048;-63
2021/03/09 07:36:35;;;;;;;11.52;5.57;;;;;;;5.08;100.00;101642.00;4981380;28;20079;-65
2021/03/09 07:39:03;;;;;;;9.93;5.53;;;;;;;5.06;100.00;101646.53;4978633;28;20464;-64
2021/03/09 07:41:29;;;;;;;11.52;5.75;;;;;;;5.06;100.00;101650.06;4963947;28;20604;-66
2021/03/09 07:43:55;;;;;;;11.82;5.68;;;;;;;5.03;100.00;101644.03;4966840;28;20666;-65
2021/03/09 07:46:22;;;;;;;13.27;5.60;;;;;;;5.09;100.00;101643.69;4963834;28;20212;-64
2021/03/09 07:48:53;;;;;;;12.38;5.15;;;;;;;5.09;100.00;101655.25;4965335;28;20087;-63
2021/03/09 07:51:21;;;;;;;16.63;5.60;;;;;;;5.05;100.00;101658.13;4969707;28;20347;-61
2021/03/09 07:54:09;;;;;;;11.05;4.72;;;;;;;5.00;100.00;101650.38;4963524;28;20176;-62
2021/03/09 07:56:35;;;;;;;12.05;4.60;;;;;;;5.00;100.00;101653.03;4983311;28;20778;-62
2021/03/09 07:59:08;;;;;;;11.13;5.55;;;;;;;4.99;100.00;101655.78;4982360;28;20175;-63
2021/03/09 08:01:45;;;;;;;13.55;5.60;;;;;;;5.04;100.00;101651.09;4980436;28;20055;-62
2021/03/09 08:04:12;;;;;;;11.70;5.15;;;;;;;5.08;100.00;101652.66;4980794;28;21078;-62
2021/03/09 08:06:43;;;;;;;10.00;4.80;;;;;;;5.23;100.00;101657.16;4982853;28;20051;-62
2021/03/09 08:09:33;;;;;;;9.95;4.40;;;;;;;5.29;100.00;101645.31;4984377;28;24811;-62
2021/03/09 08:11:59;;;;;;;8.43;4.05;;;;;;;5.40;100.00;101650.06;4987996;28;20129;-62
2021/03/09 08:14:26;;;;;;;12.63;4.88;;;;;;;5.45;100.00;101650.69;4989248;28;20165;-62
2021/03/09 08:16:52;;;;;;;10.57;4.30;;;;;;;5.43;100.00;101653.44;4987954;28;20097;-62
2021/03/09 08:19:39;;;;;;;12.73;4.57;;;;;;;5.41;100.00;101655.31;4989745;28;24907;-62
2021/03/09 08:22:06;;;;;;;9.68;3.92;;;;;;;5.41;100.00;101657.13;4988264;28;20056;-64
2021/03/09 08:24:52;;;;;;;12.00;4.07;;;;;;;5.40;100.00;101650.94;4985440;28;20473;-62
2021/03/09 08:27:41;;;;;;;11.73;4.35;;;;;;;5.38;100.00;101650.13;4988829;28;21109;-62
2021/03/09 08:30:38;;;;;;;8.37;3.90;;;;;;;5.37;100.00;101655.56;4986755;28;20809;-62
2021/03/09 08:33:23;;;;;;;10.27;3.28;;;;;;;5.40;100.00;101656.28;4988004;28;20048;-63
2021/03/09 08:35:50;;;;;;;8.93;3.53;;;;;;;5.45;100.00;101664.03;4993058;28;20425;-63
2021/03/09 08:38:20;;;;;;;9.38;3.55;;;;;;;5.49;100.00;101652.25;5066719;22;20110;-65
2021/03/09 08:41:00;;;;;;;8.77;3.60;;;;;;;5.55;100.00;101646.56;4957770;28;20568;-62
2021/03/09 08:43:26;;;;;;;8.38;2.92;;;;;;;5.61;100.00;101651.56;4963890;28;20161;-65
2021/03/09 08:45:57;;;;;;;8.88;3.05;;;;;;;5.67;100.00;101649.47;4965828;28;20507;-63
2021/03/09 08:48:50;;;;;;;7.70;2.88;;;;;;;5.75;100.00;101652.59;4969342;28;20048;-62
2021/03/09 08:51:47;;;;;;;9.65;3.20;;;;;;;5.78;100.00;101650.59;4969295;28;20064;-63
2021/03/09 08:54:26;;;;;;;6.05;3.03;;;;;;;5.74;100.00;101651.75;4972466;28;20056;-62
2021/03/09 08:59:24;;;;;;;6.65;2.80;;;;;;;5.83;100.00;101647.72;4979652;22;20100;-62
2021/03/09 09:01:51;;;;;;;14.60;3.58;;;;;;;5.84;100.00;101657.44;4931912;28;20064;-62
2021/03/09 09:04:18;;;;;;;6.38;2.80;;;;;;;5.90;100.00;101654.44;4934327;28;20057;-63
2021/03/09 09:06:45;;;;;;;9.02;3.20;;;;;;;5.77;100.00;101659.59;4946790;28;20598;-63
2021/03/09 09:09:12;;;;;;;7.22;3.05;;;;;;;5.77;100.00;101656.03;4950080;28;20049;-63
2021/03/09 09:11:38;;;;;;;6.80;3.28;;;;;;;5.75;100.00;101660.63;4951438;28;20088;-64
2021/03/09 09:14:15;;;;;;;6.43;2.80;;;;;;;5.84;100.00;101661.91;4936444;28;20057;-63
2021/03/09 09:16:41;;;;;;;6.55;2.75;;;;;;;5.84;100.00;101657.44;4941198;28;20053;-64
2021/03/09 09:19:07;;;;;;;9.27;2.65;;;;;;;5.73;100.00;101654.50;4949988;28;20169;-64
2021/03/09 09:21:43;;;;;;;6.60;3.10;;;;;;;5.66;100.00;101659.31;4933951;28;20057;-65
2021/03/09 09:24:19;;;;;;;11.95;2.95;;;;;;;5.64;100.00;101655.88;4963177;28;20123;-65
2021/03/09 09:26:45;;;;;;;5.72;2.40;;;;;;;5.62;100.00;101671.09;5032222;28;20114;-63
2021/03/09 09:29:11;;;;;;;5.80;2.70;;;;;;;5.58;100.00;101665.09;5030126;28;20057;-64
2021/03/09 09:31:37;;;;;;;7.28;2.20;;;;;;;5.58;100.00;101664.22;5025876;28;20050;-64
2021/03/09 09:34:05;;;;;;;4.20;1.88;;;;;;;5.61;100.00;101658.72;5024543;28;20045;-65
2021/03/09 09:36:31;;;;;;;7.20;2.08;;;;;;;5.70;100.00;101660.03;5031135;28;20049;-64
2021/03/09 09:38:57;;;;;;;5.70;2.30;;;;;;;5.83;100.00;101663.75;5029862;28;20045;-64
2021/03/09 09:41:26;;;;;;;5.88;2.20;;;;;;;5.87;100.00;101659.06;5027741;28;20537;-63
2021/03/09 09:43:53;;;;;;;7.03;2.50;;;;;;;5.92;100.00;101660.53;5027037;28;20064;-64
2021/03/09 09:46:21;;;;;;;7.13;2.13;;;;;;;6.07;100.00;101658.00;5028957;28;20049;-63
2021/03/09 09:48:48;;;;;;;4.35;2.50;;;;;;;6.00;100.00;101659.28;5021794;28;20054;-64
2021/03/09 09:51:15;;;;;;;7.20;2.28;;;;;;;6.04;100.00;101659.03;5017202;28;20049;-63
2021/03/09 09:53:43;;;;;;;4.82;2.65;;;;;;;6.05;100.00;101667.88;5017258;28;20061;-66
2021/03/09 09:56:10;;;;;;;2.92;1.80;;;;;;;5.87;100.00;101661.75;5017923;28;20495;-65
2021/03/09 09:58:45;;;;;;;8.82;2.33;;;;;;;5.97;100.00;101662.97;5016076;28;20091;-65
2021/03/09 10:01:12;;;;;;;7.03;1.77;;;;;;;5.91;100.00;101672.16;5017622;28;20465;-66
2021/03/09 10:03:50;;;;;;;3.17;1.73;;;;;;;6.03;100.00;101667.13;5025604;28;20050;-64
2021/03/09 10:06:17;;;;;;;4.13;1.60;;;;;;;6.08;100.00;101670.38;5026961;28;20065;-64
2021/03/09 10:08:43;;;;;;;4.47;1.58;;;;;;;6.10;100.00;101665.84;5022205;28;20303;-64
2021/03/09 10:11:10;;;;;;;9.02;2.40;;;;;;;6.07;100.00;101668.69;5026210;28;20065;-64
2021/03/09 10:13:36;;;;;;;3.65;2.40;;;;;;;5.87;100.00;101672.44;5024327;28;20045;-65
2021/03/09 10:16:04;;;;;;;4.63;2.95;;;;;;;5.84;100.00;101668.13;5026899;28;20073;-64
2021/03/09 10:18:32;;;;;;;5.13;2.90;;;;;;;5.93;100.00;101662.28;5030441;28;20045;-67
2021/03/09 10:21:00;;;;;;;6.70;3.13;;;;;;;6.00;100.00;101670.81;5029483;28;20056;-64
2021/03/09 10:23:26;;;;;;;5.97;2.85;;;;;;;5.90;100.00;101662.44;5026904;28;20045;-63
2021/03/09 10:25:57;;;;;;;6.32;2.85;;;;;;;5.89;100.00;101671.41;5026678;28;20069;-66
2021/03/09 10:28:24;;;;;;;4.13;2.58;;;;;;;5.93;100.00;101675.63;5028855;28;20052;-64
2021/03/09 10:30:50;;;;;;;5.57;2.38;;;;;;;6.05;100.00;101665.22;5022835;28;20132;-64
2021/03/09 10:33:17;;;;;;;5.38;2.20;;;;;;;6.03;100.00;101667.97;5015199;28;20525;-64
2021/03/09 10:36:04;;;;;;;4.53;2.58;;;;;;;6.05;100.00;101674.13;5017419;28;20414;-64
2021/03/09 10:38:30;;;;;;;9.85;2.80;;;;;;;6.16;100.00;101662.81;5024627;28;20081;-64
2021/03/09 10:40:56;;;;;;;8.63;2.70;;;;;;;6.28;100.00;101667.44;5024237;28;20073;-64
2021/03/09 10:43:37;;;;;;;7.85;2.80;;;;;;;6.30;100.00;101668.22;5027193;28;20046;-66
2021/03/09 10:46:03;;;;;;;5.50;2.40;;;;;;;6.38;100.00;101666.91;5028301;28;20057;-64
2021/03/09 10:48:30;;;;;;;4.10;2.50;;;;;;;6.42;100.00;101663.09;5024026;28;20042;-64
2021/03/09 10:50:56;;;;;;;5.25;1.83;;;;;;;6.45;100.00;101670.97;5024573;28;20458;-64
2021/03/09 10:53:22;;;;;;;5.40;1.92;;;;;;;6.46;100.00;101661.97;5028475;28;20041;-63
2021/03/09 10:55:48;;;;;;;4.82;2.13;;;;;;;6.42;100.00;101663.09;5027315;28;20115;-65
2021/03/09 10:58:14;;;;;;;3.63;1.52;;;;;;;6.43;100.00;101671.06;5025716;28;20052;-64
2021/03/09 11:00:40;;;;;;;4.63;1.83;;;;;;;6.40;100.00;101665.00;5025150;28;20434;-64
2021/03/09 11:03:06;;;;;;;4.90;2.10;;;;;;;6.59;100.00;101664.78;5015612;28;20053;-64
2021/03/09 11:05:34;;;;;;;6.80;2.20;;;;;;;6.53;100.00;101665.16;5028477;28;20052;-64
2021/03/09 11:08:00;;;;;;;2.33;1.33;;;;;;;6.64;100.00;101663.56;5027676;28;20052;-64
2021/03/09 11:10:26;;;;;;;2.95;1.50;;;;;;;6.80;100.00;101662.66;5017093;28;20115;-63
2021/03/09 11:12:52;;;;;;;5.55;1.75;;;;;;;6.86;100.00;101670.34;5015363;28;20458;-63
2021/03/09 11:15:18;;;;;;;6.78;1.45;;;;;;;6.82;100.00;101664.28;5014882;28;20049;-64
2021/03/09 11:17:45;;;;;;;2.35;1.30;;;;;;;6.89;100.00;101656.75;5014849;28;20057;-66
2021/03/09 11:20:12;;;;;;;3.25;1.27;;;;;;;6.99;100.00;101659.72;5016116;28;20068;-64
2021/03/09 11:22:39;;;;;;;3.47;1.20;;;;;;;7.12;100.00;101665.19;5015317;28;20314;-64
2021/03/09 11:25:06;;;;;;;2.88;1.20;;;;;;;7.03;100.00;101668.44;5015480;28;20049;-63
2021/03/09 11:27:33;;;;;;;7.15;1.40;;;;;;;6.93;100.00;101663.63;5017966;28;20049;-65
2021/03/09 11:29:59;;;;;;;4.68;1.40;;;;;;;6.86;100.00;101664.09;5015999;28;20050;-63
2021/03/09 11:32:25;;;;;;;3.28;1.52;;;;;;;6.96;100.00;101663.47;5021874;28;20099;-65